ΕΜΥ, Εθνική Μετεωρολογική Υπηρεσία - Δελτία Καιρού, Προγνώσεις

ΑΕΡΟΝΑΥΤΙΛΙΑ

GREEK AIRPORTS CODES

LGKS 211500Z 33009KT 9999 FEW025 16/08 Q1022 RMK SCT080 BKN180 HAND WIND ANEMOMETER OBSERVATION=

EUROPEAN AIRPORTS CODES

LFPO 212130Z 21014KT 5000 -RA BKN006 10/10 Q1006 NOSIG=